Time;durP1;ratioP1;P1;durP2;ratioP2;P2;SDS_P1;SDS_P2;PMS_P1;PMS_P2;Temp;Humidity;BMP_temperature;BMP_pressure;BME280_temperature;BME280_humidity;BME280_pressure;Samples;Min_cycle;Max_cycle;Signal;HPM_P1;HPM_P2
2021/12/15 00:01:38;;;;;;;164.18;53.03;;;8.40;99.90;;;;;;5089070;28;20024;-66
2021/12/15 00:04:04;;;;;;;172.25;56.10;;;8.40;99.90;;;;;;5072162;28;20492;-67
2021/12/15 00:06:30;;;;;;;165.57;55.45;;;8.40;99.90;;;;;;5089406;28;20073;-67
2021/12/15 00:08:59;;;;;;;168.88;58.80;;;8.40;99.90;;;;;;5072608;28;20480;-67
2021/12/15 00:11:34;;;;;;;171.20;56.72;;;8.50;99.90;;;;;;5090722;28;20034;-67
2021/12/15 00:14:00;;;;;;;171.43;56.40;;;8.50;99.90;;;;;;5090398;28;20033;-67
2021/12/15 00:16:27;;;;;;;173.43;59.03;;;8.50;99.90;;;;;;5088802;28;20606;-67
2021/12/15 00:18:53;;;;;;;170.55;56.63;;;8.50;99.90;;;;;;5090575;28;20032;-67
2021/12/15 00:21:20;;;;;;;170.07;58.33;;;8.50;99.90;;;;;;5071520;28;20040;-67
2021/12/15 00:23:48;;;;;;;171.45;57.88;;;8.50;99.90;;;;;;5089071;28;20016;-67
2021/12/15 00:26:14;;;;;;;165.25;56.47;;;8.50;99.90;;;;;;5071692;28;20020;-67
2021/12/15 00:28:42;;;;;;;154.25;56.40;;;8.50;99.90;;;;;;5072185;28;20030;-67
2021/12/15 00:31:07;;;;;;;156.75;56.47;;;8.50;99.90;;;;;;5071891;28;20488;-67
2021/12/15 00:33:34;;;;;;;171.60;57.53;;;8.50;99.90;;;;;;5075557;28;20107;-67
2021/12/15 00:36:01;;;;;;;160.77;56.80;;;8.50;99.90;;;;;;5074898;28;20024;-66
2021/12/15 00:38:27;;;;;;;157.15;55.00;;;8.50;99.90;;;;;;5076735;28;20115;-67
2021/12/15 00:40:52;;;;;;;172.90;57.75;;;8.50;99.90;;;;;;5074885;28;20115;-66
2021/12/15 00:43:18;;;;;;;157.43;54.47;;;8.50;99.90;;;;;;5076316;28;20107;-66
2021/12/15 00:45:45;;;;;;;162.18;56.72;;;8.50;99.90;;;;;;5058163;28;20028;-66
2021/12/15 00:48:11;;;;;;;164.68;55.30;;;8.60;99.90;;;;;;5076525;28;20108;-66
2021/12/15 00:50:37;;;;;;;158.80;54.42;;;8.60;99.90;;;;;;5075036;28;20024;-66
2021/12/15 00:53:03;;;;;;;159.30;54.53;;;8.50;99.90;;;;;;5074995;28;20032;-67
2021/12/15 00:55:31;;;;;;;158.77;54.50;;;8.50;99.90;;;;;;5075844;28;20599;-66
2021/12/15 00:57:58;;;;;;;150.32;54.60;;;8.50;99.90;;;;;;5075210;28;20027;-66
2021/12/15 01:00:28;;;;;;;157.32;55.53;;;8.50;99.90;;;;;;5075033;28;20024;-67
2021/12/15 01:02:54;;;;;;;153.95;54.58;;;8.60;99.90;;;;;;5075362;28;20025;-66
2021/12/15 01:05:22;;;;;;;147.25;54.40;;;8.60;99.90;;;;;;5074773;28;20024;-67
2021/12/15 01:07:49;;;;;;;146.60;52.80;;;8.60;99.90;;;;;;5074471;28;20017;-67
2021/12/15 01:10:22;;;;;;;152.63;53.67;;;8.60;99.90;;;;;;5074980;28;20024;-67
2021/12/15 01:14:30;;;;;;;149.45;53.50;;;8.50;99.90;;;;;;5076072;28;20074;-67
2021/12/15 01:21:11;;;;;;;151.07;53.35;;;8.50;99.90;;;;;;5073943;28;20447;-67
2021/12/15 01:23:37;;;;;;;140.60;53.45;;;8.50;99.90;;;;;;5074090;28;20035;-67
2021/12/15 01:26:08;;;;;;;140.98;51.20;;;8.50;99.90;;;;;;5075821;28;20103;-66
2021/12/15 01:28:34;;;;;;;140.48;52.40;;;8.50;99.90;;;;;;5057634;28;20031;-67
2021/12/15 01:31:00;;;;;;;147.13;51.40;;;8.50;99.90;;;;;;5073911;28;20385;-67
2021/12/15 01:33:27;;;;;;;143.07;51.22;;;8.50;99.90;;;;;;5074266;28;20081;-67
2021/12/15 01:35:54;;;;;;;148.25;52.83;;;8.50;99.90;;;;;;5075642;28;20023;-67
2021/12/15 01:38:23;;;;;;;141.70;51.95;;;8.50;99.90;;;;;;5074160;28;20374;-66
2021/12/15 01:40:49;;;;;;;142.20;51.15;;;8.50;99.90;;;;;;5073995;28;20025;-67
2021/12/15 01:43:27;;;;;;;128.65;50.00;;;8.50;99.90;;;;;;5073241;28;20390;-67
2021/12/15 01:48:53;;;;;;;129.40;48.75;;;8.40;99.90;;;;;;5073691;28;20027;-67
2021/12/15 01:51:18;;;;;;;131.45;49.25;;;8.30;99.90;;;;;;5073913;28;20024;-67
2021/12/15 01:53:44;;;;;;;125.45;48.42;;;8.30;99.90;;;;;;5075290;28;20031;-67
2021/12/15 01:56:10;;;;;;;126.53;49.42;;;8.30;99.90;;;;;;5074072;28;20032;-66
2021/12/15 01:58:35;;;;;;;123.82;47.75;;;8.20;99.90;;;;;;5073364;28;20362;-67
2021/12/15 02:01:04;;;;;;;120.97;45.97;;;8.20;99.90;;;;;;5074769;28;20040;-66
2021/12/15 02:03:30;;;;;;;120.38;45.65;;;8.10;99.90;;;;;;5074506;28;20017;-66
2021/12/15 02:05:58;;;;;;;123.47;47.22;;;8.10;99.90;;;;;;5073334;28;20384;-66
2021/12/15 02:08:24;;;;;;;115.85;44.65;;;8.00;99.90;;;;;;5074992;28;20099;-67
2021/12/15 02:10:50;;;;;;;114.47;46.50;;;8.00;99.90;;;;;;5056489;28;20051;-67
2021/12/15 02:13:17;;;;;;;115.47;44.78;;;7.90;99.90;;;;;;5074618;28;20465;-66
2021/12/15 02:15:49;;;;;;;113.03;44.55;;;7.90;99.90;;;;;;5074557;28;20066;-66
2021/12/15 02:18:20;;;;;;;127.05;47.28;;;7.90;99.90;;;;;;5074837;28;20026;-67
2021/12/15 02:20:50;;;;;;;124.28;47.08;;;7.90;99.90;;;;;;5072653;28;20559;-67
2021/12/15 02:23:20;;;;;;;124.50;47.47;;;7.80;99.90;;;;;;5073278;28;20099;-67
2021/12/15 02:25:47;;;;;;;119.18;46.20;;;7.80;99.90;;;;;;5073208;28;20096;-66
2021/12/15 02:28:13;;;;;;;124.07;47.33;;;7.80;99.90;;;;;;5074643;28;20027;-66
2021/12/15 02:30:55;;;;;;;118.68;45.95;;;7.70;99.90;;;;;;5056111;28;20029;-66
2021/12/15 02:38:56;;;;;;;117.78;45.40;;;7.70;99.90;;;;;;5073767;28;20033;-66
2021/12/15 02:41:24;;;;;;;114.22;45.67;;;7.80;99.90;;;;;;5072592;28;20028;-66
2021/12/15 02:43:54;;;;;;;113.82;44.38;;;7.80;99.90;;;;;;5072569;28;20481;-66
2021/12/15 02:46:20;;;;;;;111.80;44.97;;;7.80;99.90;;;;;;5074325;28;20021;-66
2021/12/15 02:48:46;;;;;;;112.57;44.25;;;7.70;99.90;;;;;;5074307;28;20029;-67
2021/12/15 02:51:12;;;;;;;107.65;42.38;;;7.80;99.90;;;;;;5072851;28;20050;-66
2021/12/15 02:53:38;;;;;;;109.22;42.08;;;7.70;99.90;;;;;;5073410;28;20111;-66
2021/12/15 02:56:05;;;;;;;105.30;43.30;;;7.70;99.90;;;;;;5075527;28;20052;-67
2021/12/15 02:58:35;;;;;;;113.97;42.40;;;7.60;99.90;;;;;;5073408;28;20078;-67
2021/12/15 03:01:12;;;;;;;95.78;41.63;;;7.60;99.90;;;;;;5074395;28;20027;-66
2021/12/15 03:04:26;;;;;;;100.75;41.53;;;7.60;99.90;;;;;;5057269;28;20020;-67
2021/12/15 03:06:36;;;;;;;102.90;41.53;;;7.60;99.90;;;;;;5073370;28;20031;-67
2021/12/15 03:15:20;;;;;;;93.45;39.50;;;7.50;99.90;;;;;;5072468;28;20033;-66
2021/12/15 03:17:19;;;;;;;98.82;39.05;;;7.60;99.90;;;;;;5072316;28;20024;-67
2021/12/15 03:19:45;;;;;;;93.07;39.75;;;7.60;99.90;;;;;;5073698;28;20074;-67
2021/12/15 03:22:11;;;;;;;92.43;39.30;;;7.60;99.90;;;;;;5073114;28;20037;-67
2021/12/15 03:24:36;;;;;;;93.90;38.05;;;7.60;99.90;;;;;;5072718;28;20021;-67
2021/12/15 03:27:09;;;;;;;88.30;39.13;;;7.60;99.90;;;;;;5072084;28;20025;-67
2021/12/15 03:37:52;;;;;;;82.63;35.00;;;7.30;99.90;;;;;;5072195;28;20386;-66
2021/12/15 03:40:22;;;;;;;78.22;35.53;;;7.30;99.90;;;;;;5073114;28;20032;-66
2021/12/15 03:42:54;;;;;;;83.55;34.60;;;7.40;99.90;;;;;;5053492;28;20031;-66
2021/12/15 03:45:27;;;;;;;84.63;35.03;;;7.40;99.90;;;;;;5070722;28;20389;-66
2021/12/15 03:47:54;;;;;;;86.60;35.05;;;7.40;99.90;;;;;;5070126;28;20465;-66
2021/12/15 03:50:22;;;;;;;79.35;33.65;;;7.40;99.90;;;;;;5070896;28;20390;-66
2021/12/15 03:52:49;;;;;;;83.18;34.92;;;7.40;99.90;;;;;;5071156;28;20016;-66
2021/12/15 03:55:18;;;;;;;79.35;34.08;;;7.40;99.90;;;;;;5052830;28;20424;-66
2021/12/15 03:57:44;;;;;;;79.38;34.13;;;7.40;99.90;;;;;;5052945;28;20021;-66
2021/12/15 04:00:12;;;;;;;91.15;36.60;;;7.40;99.90;;;;;;5070998;28;20458;-66
2021/12/15 04:02:38;;;;;;;81.68;35.03;;;7.50;99.90;;;;;;5069807;28;20403;-66
2021/12/15 04:05:05;;;;;;;87.55;34.35;;;7.50;99.90;;;;;;5053334;28;20032;-66
2021/12/15 04:07:31;;;;;;;91.35;37.20;;;7.50;99.90;;;;;;5069255;28;20143;-66
2021/12/15 04:09:56;;;;;;;83.93;34.83;;;7.50;99.90;;;;;;5069649;28;20056;-66
2021/12/15 04:12:23;;;;;;;81.43;33.00;;;7.50;99.90;;;;;;5052357;28;20029;-65
2021/12/15 04:14:56;;;;;;;81.43;35.10;;;7.40;99.90;;;;;;5070689;28;20024;-65
2021/12/15 04:17:26;;;;;;;80.45;35.15;;;7.40;99.90;;;;;;5070033;28;20070;-67
2021/12/15 04:19:55;;;;;;;79.55;34.42;;;7.50;99.90;;;;;;5070303;28;20021;-67
2021/12/15 04:22:23;;;;;;;90.65;37.05;;;7.60;99.90;;;;;;5069112;28;20021;-67
2021/12/15 04:24:50;;;;;;;87.40;36.20;;;7.70;99.90;;;;;;5070455;28;20078;-67
2021/12/15 04:27:17;;;;;;;79.07;34.75;;;7.70;99.90;;;;;;5068650;28;20051;-67
2021/12/15 04:29:44;;;;;;;80.07;34.90;;;7.80;99.90;;;;;;5069097;28;20468;-66
2021/12/15 04:32:17;;;;;;;83.20;34.90;;;7.90;99.90;;;;;;5068903;28;20032;-67
2021/12/15 04:34:42;;;;;;;72.90;34.60;;;8.10;99.90;;;;;;5068869;28;20111;-66
2021/12/15 04:37:08;;;;;;;76.85;34.08;;;8.10;99.90;;;;;;5068131;28;20131;-68
2021/12/15 04:39:34;;;;;;;77.43;34.97;;;8.10;99.90;;;;;;5052328;28;20017;-67
2021/12/15 04:42:00;;;;;;;74.72;33.45;;;8.20;99.90;;;;;;5051837;28;20028;-67
2021/12/15 04:44:30;;;;;;;76.72;33.45;;;8.20;99.90;;;;;;5068908;28;20068;-68
2021/12/15 04:47:04;;;;;;;71.00;32.85;;;8.20;99.90;;;;;;5051141;28;20021;-68
2021/12/15 04:49:34;;;;;;;76.80;33.30;;;8.30;99.90;;;;;;5038462;28;20029;-67
2021/12/15 04:52:02;;;;;;;74.90;32.70;;;8.30;99.90;;;;;;5054940;28;20602;-67
2021/12/15 04:54:28;;;;;;;70.40;32.70;;;8.30;99.90;;;;;;5055792;28;20404;-67
2021/12/15 04:56:54;;;;;;;70.05;30.92;;;8.30;99.90;;;;;;5055432;28;20045;-67
2021/12/15 04:59:20;;;;;;;69.53;32.97;;;8.30;99.90;;;;;;5055140;28;20032;-67
2021/12/15 05:01:47;;;;;;;70.13;31.77;;;8.30;99.90;;;;;;5054730;28;20021;-67
2021/12/15 05:04:13;;;;;;;73.13;32.70;;;8.40;99.90;;;;;;5038169;28;20017;-67
2021/12/15 05:06:39;;;;;;;67.82;31.80;;;8.40;99.90;;;;;;5055327;28;20025;-67
2021/12/15 05:09:05;;;;;;;64.25;30.80;;;8.40;99.90;;;;;;5056682;28;20347;-67
2021/12/15 05:11:32;;;;;;;66.07;31.70;;;8.40;99.90;;;;;;5056354;28;20486;-67
2021/12/15 05:13:57;;;;;;;66.82;31.55;;;8.40;99.90;;;;;;5055208;28;20029;-67
2021/12/15 05:16:23;;;;;;;65.38;32.63;;;8.40;99.90;;;;;;5056171;28;20029;-67
2021/12/15 05:18:49;;;;;;;62.88;30.55;;;8.40;99.90;;;;;;5054807;28;20029;-67
2021/12/15 05:21:16;;;;;;;65.30;30.05;;;8.50;99.90;;;;;;5056181;28;20017;-67
2021/12/15 05:23:45;;;;;;;66.43;31.08;;;8.50;99.90;;;;;;5055549;28;20023;-67
2021/12/15 05:26:11;;;;;;;59.22;29.92;;;8.60;99.90;;;;;;5054274;28;20398;-68
2021/12/15 05:28:37;;;;;;;62.30;31.33;;;8.60;99.90;;;;;;5054233;28;20117;-68
2021/12/15 05:31:03;;;;;;;56.03;27.85;;;8.60;99.90;;;;;;5056005;28;20454;-67
2021/12/15 05:33:29;;;;;;;58.13;28.80;;;8.60;99.90;;;;;;5054812;28;20078;-68
2021/12/15 05:35:56;;;;;;;64.68;30.63;;;8.60;99.90;;;;;;5055511;28;20045;-67
2021/12/15 05:38:22;;;;;;;54.45;28.08;;;8.60;99.90;;;;;;5054444;28;20056;-67
2021/12/15 05:40:49;;;;;;;60.80;29.77;;;8.60;99.90;;;;;;5054395;28;20564;-67
2021/12/15 05:43:15;;;;;;;57.28;29.15;;;8.60;99.90;;;;;;5055761;28;20029;-67
2021/12/15 05:45:42;;;;;;;65.38;31.02;;;8.60;99.90;;;;;;5054736;28;20025;-67
2021/12/15 05:48:11;;;;;;;62.28;31.20;;;8.60;99.90;;;;;;5037242;28;20116;-67
2021/12/15 05:50:37;;;;;;;65.72;31.70;;;8.60;99.90;;;;;;5055416;28;20029;-67
2021/12/15 05:53:03;;;;;;;64.60;31.02;;;8.60;99.90;;;;;;5055330;28;20022;-67
2021/12/15 05:55:29;;;;;;;60.50;31.27;;;8.60;99.90;;;;;;5054176;28;20147;-67
2021/12/15 05:57:55;;;;;;;71.47;35.72;;;8.60;99.90;;;;;;5055000;28;20017;-67
2021/12/15 06:00:25;;;;;;;74.13;35.20;;;8.60;99.90;;;;;;5053011;28;20462;-67
2021/12/15 06:02:52;;;;;;;70.85;34.20;;;8.60;99.90;;;;;;5053954;28;20576;-67
2021/12/15 06:05:18;;;;;;;69.78;33.88;;;8.60;99.90;;;;;;5055343;28;20063;-67
2021/12/15 06:07:46;;;;;;;83.28;37.65;;;8.60;99.90;;;;;;5054266;28;20033;-68
2021/12/15 06:10:19;;;;;;;78.85;36.70;;;8.60;99.90;;;;;;5053463;28;20389;-67
2021/12/15 06:12:47;;;;;;;79.07;37.05;;;8.60;99.90;;;;;;5055230;28;20032;-67
2021/12/15 06:15:14;;;;;;;73.32;35.72;;;8.60;99.90;;;;;;5037300;28;20433;-71
2021/12/15 06:17:40;;;;;;;78.50;36.40;;;8.60;99.90;;;;;;5054718;28;20028;-71
2021/12/15 06:20:06;;;;;;;82.70;38.03;;;8.60;99.90;;;;;;5053179;28;20029;-71
2021/12/15 06:22:33;;;;;;;77.13;36.15;;;8.60;99.90;;;;;;5053150;28;20055;-71
2021/12/15 06:24:59;;;;;;;82.18;36.75;;;8.60;99.90;;;;;;5053507;28;20017;-71
2021/12/15 06:27:29;;;;;;;84.18;39.63;;;8.60;99.90;;;;;;5036582;28;20082;-71
2021/12/15 06:29:54;;;;;;;84.30;38.35;;;8.60;99.90;;;;;;5054312;28;20104;-71
2021/12/15 06:32:21;;;;;;;79.72;37.40;;;8.60;99.90;;;;;;5053433;28;20122;-71
2021/12/15 06:34:47;;;;;;;77.55;36.20;;;8.60;99.90;;;;;;5052964;28;20477;-71
2021/12/15 06:37:12;;;;;;;81.22;36.67;;;8.60;99.90;;;;;;5052796;28;20093;-71
2021/12/15 06:39:38;;;;;;;79.22;36.28;;;8.60;99.90;;;;;;5052960;28;20021;-72
2021/12/15 06:42:04;;;;;;;77.30;35.22;;;8.60;99.90;;;;;;5053987;28;20032;-71
2021/12/15 06:44:30;;;;;;;79.78;37.25;;;8.60;99.90;;;;;;5036245;28;20033;-71
2021/12/15 06:47:24;;;;;;;77.35;36.75;;;8.60;99.90;;;;;;5053528;28;20021;-71
2021/12/15 07:00:31;;;;;;;77.93;35.53;;;8.60;99.90;;;;;;5053015;28;20040;-71
2021/12/15 07:02:58;;;;;;;86.53;36.90;;;8.60;99.90;;;;;;5036246;28;20055;-71
2021/12/15 07:05:26;;;;;;;77.43;35.42;;;8.60;99.90;;;;;;5053478;28;20053;-70
2021/12/15 07:07:54;;;;;;;81.35;36.17;;;8.50;99.90;;;;;;5052869;28;20029;-71
2021/12/15 07:10:24;;;;;;;78.63;34.47;;;8.50;99.90;;;;;;5053020;28;20075;-71
2021/12/15 07:12:50;;;;;;;74.07;34.13;;;8.60;99.90;;;;;;5052344;28;20082;-71
2021/12/15 07:15:16;;;;;;;77.57;34.88;;;8.60;99.90;;;;;;5052533;28;20025;-71
2021/12/15 07:17:46;;;;;;;73.18;34.03;;;8.60;99.90;;;;;;5035514;28;20448;-71
2021/12/15 07:20:50;;;;;;;67.68;32.05;;;8.60;99.90;;;;;;5052296;28;20021;-71
2021/12/15 07:23:00;;;;;;;68.43;31.95;;;8.60;99.90;;;;;;5053207;28;20033;-71
2021/12/15 07:25:27;;;;;;;70.25;31.55;;;8.60;99.90;;;;;;5053429;28;20021;-71
2021/12/15 07:27:53;;;;;;;66.10;31.00;;;8.60;99.90;;;;;;5053101;28;20025;-71
2021/12/15 07:30:20;;;;;;;70.65;32.28;;;8.60;99.90;;;;;;5052928;28;20025;-70
2021/12/15 07:32:46;;;;;;;68.53;31.38;;;8.60;99.90;;;;;;5052635;28;20025;-71
2021/12/15 07:35:14;;;;;;;68.22;30.88;;;8.60;99.90;;;;;;5034962;28;20040;-70
2021/12/15 07:37:39;;;;;;;69.20;30.02;;;8.60;99.90;;;;;;5055511;28;20512;-71
2021/12/15 07:40:11;;;;;;;61.50;29.67;;;8.60;99.90;;;;;;5051537;28;20029;-71
2021/12/15 07:42:53;;;;;;;65.82;29.25;;;8.70;99.90;;;;;;5032160;28;20037;-71
2021/12/15 07:45:22;;;;;;;61.80;28.52;;;8.60;99.90;;;;;;5051498;28;20017;-70
2021/12/15 07:47:49;;;;;;;62.00;27.35;;;8.60;99.90;;;;;;5050856;28;20444;-71
2021/12/15 07:50:14;;;;;;;65.50;29.02;;;8.70;99.90;;;;;;5049949;28;20060;-71
2021/12/15 07:52:40;;;;;;;61.70;27.85;;;8.70;99.90;;;;;;5052084;28;20068;-71
2021/12/15 07:55:06;;;;;;;66.20;29.35;;;8.70;99.90;;;;;;5047382;28;20029;-66
2021/12/15 07:57:32;;;;;;;65.15;28.90;;;8.70;99.90;;;;;;5050621;28;20049;-66
2021/12/15 07:59:58;;;;;;;63.25;29.33;;;8.70;99.90;;;;;;5034659;28;20060;-66
2021/12/15 08:02:24;;;;;;;56.95;27.25;;;8.70;99.90;;;;;;5050039;28;20067;-71
2021/12/15 08:04:49;;;;;;;68.60;27.63;;;8.70;99.90;;;;;;5051000;28;20056;-71
2021/12/15 08:07:15;;;;;;;61.42;26.90;;;8.70;99.90;;;;;;5051091;28;20075;-72
2021/12/15 08:09:41;;;;;;;54.70;26.05;;;8.70;99.90;;;;;;5050999;28;20029;-72
2021/12/15 08:12:07;;;;;;;59.90;27.92;;;8.70;99.90;;;;;;5049028;28;20025;-71
2021/12/15 08:14:33;;;;;;;62.55;27.70;;;8.70;99.90;;;;;;5050730;28;20033;-71
2021/12/15 08:16:59;;;;;;;59.78;27.83;;;8.70;99.90;;;;;;5051364;28;20028;-72
2021/12/15 08:19:24;;;;;;;65.15;27.50;;;8.70;99.90;;;;;;5034892;28;20018;-71
2021/12/15 08:21:50;;;;;;;61.92;28.50;;;8.70;99.90;;;;;;5051234;28;20029;-71
2021/12/15 08:24:16;;;;;;;63.63;27.98;;;8.70;99.90;;;;;;5054453;28;20429;-71
2021/12/15 08:26:42;;;;;;;57.10;27.45;;;8.80;99.90;;;;;;5056866;28;20558;-71
2021/12/15 08:29:07;;;;;;;62.42;27.77;;;8.80;99.90;;;;;;5055822;28;20032;-71
2021/12/15 08:31:33;;;;;;;60.05;26.58;;;8.70;99.90;;;;;;5038211;28;20115;-72
2021/12/15 08:33:59;;;;;;;64.80;28.02;;;8.80;99.90;;;;;;5055917;28;20090;-72
2021/12/15 08:36:25;;;;;;;57.25;28.10;;;8.80;99.90;;;;;;5054619;28;20073;-72
2021/12/15 08:38:52;;;;;;;60.25;26.92;;;8.80;99.90;;;;;;5056222;28;20025;-72
2021/12/15 08:41:22;;;;;;;58.30;26.17;;;8.80;99.90;;;;;;5056979;28;20025;-72
2021/12/15 08:43:48;;;;;;;62.33;28.27;;;8.80;99.90;;;;;;5072468;28;20446;-71
2021/12/15 08:46:18;;;;;;;64.88;27.52;;;8.80;99.90;;;;;;5058823;28;20028;-72
2021/12/15 08:48:45;;;;;;;65.18;28.10;;;8.80;99.90;;;;;;5050000;28;20121;-72
2021/12/15 08:51:13;;;;;;;65.18;26.42;;;8.80;99.90;;;;;;5067884;28;20121;-75
2021/12/15 08:53:41;;;;;;;61.33;27.33;;;8.90;99.90;;;;;;5060082;28;20033;-71
2021/12/15 08:56:08;;;;;;;64.80;26.33;;;8.80;99.90;;;;;;5040784;28;20028;-67
2021/12/15 08:58:35;;;;;;;60.25;25.73;;;8.90;99.90;;;;;;5074557;28;20023;-67
2021/12/15 09:01:02;;;;;;;68.43;27.15;;;8.90;99.90;;;;;;5038871;28;20064;-68
2021/12/15 09:03:28;;;;;;;59.60;24.63;;;8.90;99.90;;;;;;5037653;28;20025;-69
2021/12/15 09:05:58;;;;;;;57.80;25.67;;;8.90;99.90;;;;;;5050171;28;20021;-70
2021/12/15 09:08:25;;;;;;;53.70;23.88;;;8.90;99.90;;;;;;5051125;28;20482;-69
2021/12/15 09:10:53;;;;;;;56.03;25.05;;;8.90;99.90;;;;;;5055433;28;20033;-69
2021/12/15 09:13:19;;;;;;;56.25;23.58;;;8.90;99.90;;;;;;5054174;28;20025;-68
2021/12/15 09:15:45;;;;;;;51.67;24.65;;;8.90;99.90;;;;;;5054590;28;20370;-68
2021/12/15 09:18:12;;;;;;;56.30;24.85;;;9.00;99.90;;;;;;5054117;28;20025;-67
2021/12/15 09:20:40;;;;;;;52.22;23.92;;;9.00;99.90;;;;;;5054098;28;20347;-66
2021/12/15 09:23:08;;;;;;;52.55;23.23;;;9.00;99.90;;;;;;5053861;28;20017;-67
2021/12/15 09:25:36;;;;;;;51.72;23.05;;;9.00;99.90;;;;;;5054172;28;20385;-68
2021/12/15 09:28:02;;;;;;;48.55;22.73;;;9.00;99.90;;;;;;5033908;28;20029;-73
2021/12/15 09:30:30;;;;;;;47.97;22.48;;;9.10;99.90;;;;;;5017539;28;20466;-72
2021/12/15 09:32:57;;;;;;;49.72;21.75;;;9.00;99.90;;;;;;5041508;28;20029;-73
2021/12/15 09:35:25;;;;;;;46.80;21.15;;;9.00;99.90;;;;;;5055047;28;20142;-74
2021/12/15 09:37:52;;;;;;;49.45;21.92;;;9.00;99.90;;;;;;5053754;28;20091;-72
2021/12/15 09:40:19;;;;;;;52.95;22.92;;;9.00;99.90;;;;;;5054617;28;20029;-72
2021/12/15 09:42:46;;;;;;;47.53;23.30;;;9.00;99.90;;;;;;5034192;28;20028;-72
2021/12/15 09:45:47;;;;;;;48.85;22.70;;;9.00;99.90;;;;;;5048817;28;20437;-73
2021/12/15 10:02:04;;;;;;;43.60;21.10;;;9.10;99.90;;;;;;5090254;28;20025;-73
2021/12/15 10:04:33;;;;;;;48.00;23.20;;;9.10;99.90;;;;;;5089536;28;20112;-73
2021/12/15 10:18:34;;;;;;;41.25;21.35;;;9.30;99.90;;;;;;5090400;28;20035;-73
2021/12/15 10:21:01;;;;;;;45.72;22.33;;;9.30;99.90;;;;;;5088981;28;20099;-73
2021/12/15 10:23:34;;;;;;;46.83;23.25;;;9.30;99.90;;;;;;5088735;28;20032;-73
2021/12/15 10:26:00;;;;;;;43.58;21.67;;;9.30;99.90;;;;;;5072699;28;21616;-73
2021/12/15 10:28:29;;;;;;;45.03;23.17;;;9.30;99.90;;;;;;5088052;28;20115;-73
2021/12/15 10:31:01;;;;;;;46.15;23.17;;;9.30;99.90;;;;;;5088845;28;20031;-73
2021/12/15 10:33:33;;;;;;;52.15;23.45;;;9.30;99.90;;;;;;5089489;28;20018;-73
2021/12/15 10:36:05;;;;;;;50.83;23.97;;;9.40;99.90;;;;;;5087959;28;20017;-72
2021/12/15 10:38:40;;;;;;;51.45;23.35;;;9.40;99.90;;;;;;5088902;28;20719;-72
2021/12/15 10:41:17;;;;;;;46.00;23.17;;;9.40;99.90;;;;;;5089364;28;20028;-72
2021/12/15 10:43:50;;;;;;;45.13;23.50;;;9.40;99.90;;;;;;5088887;28;20385;-72
2021/12/15 10:46:19;;;;;;;;;;;9.40;99.90;;;;;;5072860;28;20024;-72
2021/12/15 10:51:49;;;;;;;43.78;23.70;;;9.40;99.90;;;;;;5096179;27;20777;-73
2021/12/15 10:54:20;;;;;;;50.63;26.23;;;9.40;99.90;;;;;;5099572;28;20027;-73
2021/12/15 10:56:55;;;;;;;47.65;26.13;;;9.50;99.90;;;;;;5111539;28;20019;-73
2021/12/15 10:59:23;;;;;;;52.85;26.55;;;9.50;99.90;;;;;;5083803;28;20029;-67
2021/12/15 11:01:59;;;;;;;49.55;26.75;;;9.50;99.90;;;;;;5100911;28;20025;-66
2021/12/15 11:04:34;;;;;;;50.03;26.88;;;9.50;99.90;;;;;;5089513;28;20020;-66
2021/12/15 11:07:06;;;;;;;49.60;28.23;;;9.50;99.90;;;;;;5090743;28;20032;-73
2021/12/15 11:09:36;;;;;;;51.20;27.38;;;9.50;99.90;;;;;;5085135;28;20032;-73
2021/12/15 11:12:07;;;;;;;52.97;28.00;;;9.60;99.90;;;;;;5072792;28;20039;-73
2021/12/15 11:14:39;;;;;;;49.13;26.80;;;9.60;99.90;;;;;;5092812;28;20392;-73
2021/12/15 11:17:11;;;;;;;53.17;27.15;;;9.50;99.90;;;;;;5111262;28;20023;-73
2021/12/15 11:19:45;;;;;;;51.90;27.10;;;9.60;99.90;;;;;;5108493;28;20105;-74
2021/12/15 11:22:31;;;;;;;49.20;27.08;;;9.60;99.90;;;;;;5090639;28;20016;-72
2021/12/15 11:24:58;;;;;;;45.53;26.48;;;9.60;99.90;;;;;;5101305;28;20032;-73
2021/12/15 11:27:23;;;;;;;51.55;27.00;;;9.60;99.90;;;;;;5106891;28;20110;-73
2021/12/15 11:29:49;;;;;;;46.05;27.33;;;9.60;99.90;;;;;;5110613;28;20102;-72
2021/12/15 11:32:37;;;;;;;47.65;27.25;;;9.60;99.90;;;;;;5094450;28;20149;-72
2021/12/15 11:35:08;;;;;;;46.20;26.08;;;9.60;99.90;;;;;;5099403;28;20024;-72
2021/12/15 11:38:13;;;;;;;48.50;27.30;;;9.60;99.90;;;;;;5110765;28;20016;-72
2021/12/15 11:40:44;;;;;;;51.47;28.23;;;9.70;99.90;;;;;;5093215;28;20028;-72
2021/12/15 11:43:26;;;;;;;52.15;27.35;;;9.70;99.90;;;;;;5089371;28;20089;-72
2021/12/15 11:45:52;;;;;;;47.90;28.27;;;9.70;99.90;;;;;;5105263;28;20028;-73
2021/12/15 11:48:22;;;;;;;45.08;26.10;;;9.70;99.90;;;;;;5108908;28;20050;-73
2021/12/15 11:50:51;;;;;;;54.50;27.83;;;9.70;99.90;;;;;;5075713;28;20052;-72
2021/12/15 11:53:42;;;;;;;43.65;26.15;;;9.80;99.90;;;;;;5090251;28;20112;-72
2021/12/15 11:56:21;;;;;;;48.13;26.98;;;9.80;99.90;;;;;;5088440;28;20024;-72
2021/12/15 11:58:51;;;;;;;47.53;27.45;;;9.80;99.90;;;;;;5088317;28;20024;-73
2021/12/15 12:01:39;;;;;;;44.33;25.58;;;9.80;99.90;;;;;;5092816;28;20377;-72
2021/12/15 12:04:26;;;;;;;46.80;27.05;;;9.80;99.90;;;;;;5076018;28;20024;-73
2021/12/15 12:06:57;;;;;;;47.88;27.27;;;9.80;99.90;;;;;;5054878;28;20032;-72
2021/12/15 12:09:24;;;;;;;49.33;26.50;;;9.80;99.90;;;;;;5059641;28;20074;-73
2021/12/15 12:11:55;;;;;;;47.40;27.40;;;9.80;99.90;;;;;;5094727;28;20023;-73
2021/12/15 12:14:39;;;;;;;51.28;28.17;;;9.80;99.90;;;;;;5093912;28;20016;-72
2021/12/15 12:17:12;;;;;;;51.75;27.85;;;9.80;99.90;;;;;;5076258;28;20414;-73
2021/12/15 12:19:42;;;;;;;50.10;28.02;;;9.80;99.90;;;;;;5076872;28;20071;-73
2021/12/15 12:22:10;;;;;;;51.67;28.67;;;9.80;99.90;;;;;;5096464;28;20107;-73
2021/12/15 12:24:36;;;;;;;53.50;28.75;;;9.80;99.90;;;;;;5093940;28;20048;-73
2021/12/15 12:27:02;;;;;;;50.60;25.95;;;9.80;99.90;;;;;;5076156;28;20024;-73
2021/12/15 12:29:29;;;;;;;47.95;27.77;;;9.80;99.90;;;;;;5082107;28;20028;-73
2021/12/15 12:31:55;;;;;;;55.00;28.63;;;9.80;99.90;;;;;;5063660;28;20103;-73
2021/12/15 12:34:20;;;;;;;52.20;29.00;;;9.70;99.90;;;;;;5076584;28;20180;-72
2021/12/15 12:36:48;;;;;;;54.25;28.42;;;9.70;99.90;;;;;;5089004;28;20008;-72
2021/12/15 12:39:17;;;;;;;55.05;28.92;;;9.70;99.90;;;;;;5075364;28;20499;-73
2021/12/15 12:41:45;;;;;;;56.35;30.05;;;9.70;99.90;;;;;;5073188;28;20030;-72
2021/12/15 12:44:13;;;;;;;58.45;31.30;;;9.70;99.90;;;;;;5074402;28;20031;-73
2021/12/15 12:46:48;;;;;;;61.03;29.35;;;9.70;99.90;;;;;;5075557;28;20066;-72
2021/12/15 12:49:48;;;;;;;60.95;32.17;;;9.70;99.90;;;;;;5075368;28;20020;-73
2021/12/15 13:01:07;;;;;;;65.45;33.38;;;9.70;99.90;;;;;;5075261;28;20056;-73
2021/12/15 13:03:37;;;;;;;75.65;33.00;;;9.70;99.90;;;;;;5076341;28;20032;-73
2021/12/15 13:06:07;;;;;;;69.97;33.50;;;9.60;99.90;;;;;;5075220;28;20028;-72
2021/12/15 13:08:42;;;;;;;70.35;35.05;;;9.60;99.90;;;;;;5095349;28;20020;-72
2021/12/15 13:11:34;;;;;;;76.88;36.65;;;9.60;99.90;;;;;;5080443;28;20025;-71
2021/12/15 13:14:19;;;;;;;71.22;34.65;;;9.60;99.90;;;;;;5072068;28;20495;-73
2021/12/15 13:16:54;;;;;;;73.60;35.40;;;9.60;99.90;;;;;;5068756;28;20077;-73
2021/12/15 13:19:27;;;;;;;68.80;34.80;;;9.60;99.90;;;;;;5081747;28;20423;-73
2021/12/15 13:22:19;;;;;;;74.88;36.30;;;9.60;99.90;;;;;;5073907;28;20107;-73
2021/12/15 13:28:47;;;;;;;80.75;38.00;;;9.60;99.90;;;;;;5074683;28;20303;-73
2021/12/15 13:33:48;;;;;;;83.93;37.85;;;9.60;99.90;;;;;;5111058;27;20404;-72
2021/12/15 13:36:30;;;;;;;79.05;37.88;;;9.60;99.90;;;;;;5111693;28;20186;-73
2021/12/15 13:39:05;;;;;;;80.47;38.35;;;9.60;99.90;;;;;;5095547;28;20027;-73
2021/12/15 13:44:44;;;;;;;86.28;39.75;;;9.60;99.90;;;;;;5111583;27;20363;-73
2021/12/15 13:52:34;;;;;;;83.30;40.85;;;9.60;99.90;;;;;;5091056;28;20409;-74
2021/12/15 13:55:20;;;;;;;85.63;39.33;;;9.60;99.90;;;;;;5090734;28;20074;-73
2021/12/15 13:57:51;;;;;;;80.22;38.33;;;9.60;99.90;;;;;;5090592;28;20083;-74
2021/12/15 14:00:22;;;;;;;82.50;39.13;;;9.60;99.90;;;;;;5090527;28;20024;-73
2021/12/15 14:03:07;;;;;;;86.95;40.88;;;9.70;99.90;;;;;;5090595;28;20528;-73
2021/12/15 14:05:51;;;;;;;79.55;39.25;;;9.60;99.90;;;;;;5091002;28;20020;-73
2021/12/15 14:08:18;;;;;;;;;;;9.70;99.90;;;;;;5074686;28;20528;-73
2021/12/15 14:10:50;;;;;;;83.20;39.78;;;9.70;99.90;;;;;;5072560;28;19908;-73
2021/12/15 14:13:16;;;;;;;87.50;39.30;;;9.70;99.90;;;;;;5089842;28;20047;-73
2021/12/15 14:15:45;;;;;;;88.18;41.05;;;9.70;99.90;;;;;;5072237;28;20054;-73
2021/12/15 14:18:22;;;;;;;82.70;40.20;;;9.70;99.90;;;;;;5072226;28;20048;-73